首页
METAR-TAF:

METAR-TAF

机场 :

伯明翰机场

伯明翰, 英格兰

纬度: 52-27N, 经度: 001-44W, 海拔: 99米

当前天气观测

该预报发布于29分钟前的14:20 UTC
风速15节,风向西北
温度 9°C
湿度 53%
气压 1017 hPa
能见度10公里或以上
少量云层高于3200英尺

METAR: EGBB 231420Z 31015KT 9999 FEW032 09/00 Q1017

时间: 14:49 (14:49 UTC)

预报

该预报发布于3小时和47分钟前的11:02 UTC
预报有效从23日的 12点(UTC)到 24日的 12点(UTC)
风速16节,风向西转西北,有时为26节阵风
能见度10公里或以上
多云层高于3000英尺
几率 30% :
短暂存在
从 23日的 12点(UTC)到 23日的 13点(UTC)
能見度: 7000
多云层高于1400英尺
阵雨
成为
从 23日的 15点(UTC)到 23日的 18点(UTC)
风速6节,风向西
能见度10公里或以上
1500米以下无云,无积雨云
成为
从 23日的 22点(UTC)到 24日的 02点(UTC)
能見度: 8000
少量云层高于800英尺
多云层高于2000英尺
小雨
短暂存在
从 24日的 00点(UTC)到 24日的 09点(UTC)
能見度: 4000
多云层高于800英尺
成为
从 24日的 03点(UTC)到 24日的 06点(UTC)
风速12节,风向东南
成为
从 24日的 06点(UTC)到 24日的 09点(UTC)
风速18节,风向西南,有时为30节阵风
几率 30% :
短暂存在
从 24日的 06点(UTC)到 24日的 09点(UTC)
大雨
成为
从 24日的 09点(UTC)到 24日的 12点(UTC)
能见度10公里或以上
短暂存在
从 24日的 09点(UTC)到 24日的 12点(UTC)
多云层高于1200英尺

TAF: EGBB 231102Z 2312/2412 29016G26KT 9999 BKN030 PROB30 TEMPO 2312/2313 7000 SHRA BKN014 BECMG 2315/2318 26006KT CAVOK BECMG 2322/2402 8000 -RA FEW008 BKN020 TEMPO 2400/2409 4000 RA BKN008 BECMG 2403/2406 14012KT BECMG 2406/2409 22018G30KT PROB30 TEMPO 2406/2409 +RA BECMG 2409/2412 9999 NSW TEMPO 2409/2412 BKN012

超过4000个机场的气象观测和天气预报(METAR&TAF报告)。

可查询的气象台以黄色和红色小点在地图上表示。

将鼠标移到小点上方,可查看气象台名称。

然后点击查看天气观测和预报。

如需切换地图:点击带黑十字的绿色按钮放大地图;点击带横线的绿色按钮缩小地图;或者点击绿色箭头查看邻近地区的地图。


METAR-TAF: